Time;durP1;ratioP1;P1;durP2;ratioP2;P2;SDS_P1;SDS_P2;PMS_P1;PMS_P2;Temp;Humidity;BMP_temperature;BMP_pressure;BME280_temperature;BME280_humidity;BME280_pressure;Samples;Min_cycle;Max_cycle;Signal;HPM_P1;HPM_P2
2024/01/07 00:01:25;;;;;;;10.50;4.05;;;;;;;;;;5107669;27;20031;-87
2024/01/07 00:03:52;;;;;;;8.23;4.63;;;;;;;;;;5118118;27;20047;-88
2024/01/07 00:06:21;;;;;;;9.23;4.65;;;;;;;;;;5121735;27;20389;-87
2024/01/07 00:08:50;;;;;;;8.57;4.57;;;;;;;;;;5121635;27;20039;-87
2024/01/07 00:11:16;;;;;;;7.10;4.28;;;;;;;;;;5124527;27;20070;-86
2024/01/07 00:13:42;;;;;;;7.82;4.03;;;;;;;;;;5108732;27;20466;-88
2024/01/07 00:16:08;;;;;;;9.07;4.47;;;;;;;;;;5118165;27;20108;-88
2024/01/07 00:18:34;;;;;;;8.85;5.07;;;;;;;;;;5125786;27;20028;-87
2024/01/07 00:21:00;;;;;;;10.30;4.68;;;;;;;;;;5122580;27;20455;-88
2024/01/07 00:23:26;;;;;;;6.47;4.75;;;;;;;;;;5108338;27;20047;-87
2024/01/07 00:25:52;;;;;;;7.60;3.90;;;;;;;;;;5108741;27;20039;-88
2024/01/07 00:28:18;;;;;;;7.80;3.97;;;;;;;;;;5123634;27;20122;-87
2024/01/07 00:30:45;;;;;;;7.03;4.25;;;;;;;;;;5105735;27;20044;-88
2024/01/07 00:33:11;;;;;;;6.40;4.47;;;;;;;;;;5136898;27;20102;-87
2024/01/07 00:35:37;;;;;;;7.40;4.30;;;;;;;;;;5118000;27;20095;-88
2024/01/07 00:38:03;;;;;;;9.27;4.35;;;;;;;;;;5125667;27;20043;-87
2024/01/07 00:40:29;;;;;;;7.60;4.82;;;;;;;;;;5138338;27;20023;-87
2024/01/07 00:42:55;;;;;;;8.48;4.18;;;;;;;;;;5149855;27;20026;-87
2024/01/07 00:45:21;;;;;;;8.95;4.05;;;;;;;;;;5118612;27;20521;-87
2024/01/07 00:47:48;;;;;;;11.55;4.57;;;;;;;;;;5105026;27;20522;-87
2024/01/07 00:50:14;;;;;;;9.38;4.25;;;;;;;;;;5121449;27;20496;-88
2024/01/07 00:52:42;;;;;;;8.13;3.92;;;;;;;;;;5122330;27;20045;-87
2024/01/07 00:55:08;;;;;;;5.07;3.70;;;;;;;;;;5119920;27;20517;-87
2024/01/07 00:57:34;;;;;;;8.63;4.93;;;;;;;;;;5120742;27;20031;-87
2024/01/07 01:00:01;;;;;;;10.00;4.63;;;;;;;;;;5106277;27;20039;-87
2024/01/07 01:02:27;;;;;;;9.05;5.00;;;;;;;;;;5119639;27;20035;-87
2024/01/07 01:04:53;;;;;;;5.90;4.05;;;;;;;;;;5100505;27;20126;-87
2024/01/07 01:07:19;;;;;;;7.47;3.83;;;;;;;;;;5103061;27;20035;-87
2024/01/07 01:09:45;;;;;;;6.20;4.00;;;;;;;;;;5108493;27;20080;-87
2024/01/07 01:12:11;;;;;;;8.52;4.30;;;;;;;;;;5122368;27;20043;-87
2024/01/07 01:14:37;;;;;;;7.35;4.05;;;;;;;;;;5124981;27;20039;-87
2024/01/07 01:17:04;;;;;;;7.85;3.97;;;;;;;;;;5102880;28;20499;-87
2024/01/07 01:19:30;;;;;;;7.15;4.00;;;;;;;;;;5123162;27;20570;-86
2024/01/07 01:21:56;;;;;;;10.35;5.15;;;;;;;;;;5124234;27;20046;-87
2024/01/07 01:24:22;;;;;;;10.40;5.65;;;;;;;;;;5108490;27;20051;-87
2024/01/07 01:26:48;;;;;;;8.88;4.68;;;;;;;;;;5127504;27;20047;-87
2024/01/07 01:29:14;;;;;;;9.27;6.03;;;;;;;;;;5111975;27;20045;-87
2024/01/07 01:31:41;;;;;;;8.05;4.50;;;;;;;;;;5127606;27;20035;-88
2024/01/07 01:34:07;;;;;;;6.53;3.80;;;;;;;;;;5117744;27;20051;-87
2024/01/07 01:36:33;;;;;;;7.95;4.22;;;;;;;;;;5119894;27;20403;-87
2024/01/07 01:38:59;;;;;;;10.80;4.93;;;;;;;;;;5117650;27;20039;-87
2024/01/07 01:41:25;;;;;;;6.97;4.72;;;;;;;;;;5127224;27;20119;-88
2024/01/07 01:43:51;;;;;;;9.30;5.03;;;;;;;;;;5117352;27;20502;-87
2024/01/07 01:46:17;;;;;;;7.68;4.38;;;;;;;;;;5123743;27;20124;-87
2024/01/07 01:48:44;;;;;;;9.63;4.82;;;;;;;;;;5121071;27;20039;-87
2024/01/07 01:51:10;;;;;;;5.20;4.10;;;;;;;;;;5122246;27;20994;-87
2024/01/07 01:53:37;;;;;;;7.55;4.72;;;;;;;;;;5122280;27;20043;-87
2024/01/07 01:56:03;;;;;;;6.88;4.50;;;;;;;;;;5102561;28;20115;-88
2024/01/07 01:58:30;;;;;;;11.07;4.50;;;;;;;;;;5101241;28;20027;-87
2024/01/07 02:00:57;;;;;;;11.27;6.50;;;;;;;;;;5121542;28;20031;-87
2024/01/07 02:03:23;;;;;;;9.43;4.97;;;;;;;;;;5106122;28;20043;-88
2024/01/07 02:05:50;;;;;;;5.90;3.55;;;;;;;;;;5103007;28;20410;-87
2024/01/07 02:08:16;;;;;;;7.97;4.10;;;;;;;;;;5116514;28;20101;-88
2024/01/07 02:10:42;;;;;;;7.90;4.32;;;;;;;;;;5124329;28;20116;-87
2024/01/07 02:13:08;;;;;;;7.15;4.47;;;;;;;;;;5123442;28;20047;-88
2024/01/07 02:15:35;;;;;;;8.32;4.07;;;;;;;;;;5100385;28;20126;-87
2024/01/07 02:18:01;;;;;;;6.35;3.45;;;;;;;;;;5101329;28;20035;-88
2024/01/07 02:20:27;;;;;;;7.30;4.32;;;;;;;;;;5116096;28;20434;-86
2024/01/07 02:22:53;;;;;;;8.32;4.93;;;;;;;;;;5097091;28;20411;-87
2024/01/07 02:25:19;;;;;;;7.15;3.97;;;;;;;;;;5096347;28;20039;-87
2024/01/07 02:27:45;;;;;;;6.35;3.67;;;;;;;;;;5115166;28;20046;-87
2024/01/07 02:30:12;;;;;;;9.43;4.10;;;;;;;;;;5125969;28;20067;-87
2024/01/07 02:32:38;;;;;;;5.50;3.30;;;;;;;;;;5098187;27;20118;-88
2024/01/07 02:35:04;;;;;;;8.70;4.28;;;;;;;;;;5101904;27;20043;-87
2024/01/07 02:37:30;;;;;;;6.53;4.20;;;;;;;;;;5103120;27;20043;-87
2024/01/07 02:39:56;;;;;;;6.72;3.90;;;;;;;;;;5105568;27;20394;-87
2024/01/07 02:42:23;;;;;;;6.03;3.60;;;;;;;;;;5124420;27;20119;-88
2024/01/07 02:44:49;;;;;;;7.57;4.20;;;;;;;;;;5106273;27;20039;-87
2024/01/07 02:47:15;;;;;;;6.60;3.90;;;;;;;;;;5119283;27;20043;-87
2024/01/07 02:49:44;;;;;;;8.68;4.35;;;;;;;;;;5107766;27;20046;-87
2024/01/07 02:52:10;;;;;;;6.20;3.65;;;;;;;;;;5121742;27;20035;-87
2024/01/07 02:54:36;;;;;;;6.22;3.55;;;;;;;;;;5105394;27;20040;-87
2024/01/07 02:57:02;;;;;;;6.82;4.13;;;;;;;;;;5103192;27;20047;-87
2024/01/07 02:59:28;;;;;;;8.18;4.43;;;;;;;;;;5126355;27;20043;-87
2024/01/07 03:01:54;;;;;;;7.82;3.72;;;;;;;;;;5105117;27;20039;-86
2024/01/07 03:04:20;;;;;;;8.07;3.67;;;;;;;;;;5106413;27;20583;-86
2024/01/07 03:06:46;;;;;;;6.55;3.35;;;;;;;;;;5105773;27;20118;-87
2024/01/07 03:09:12;;;;;;;6.28;4.03;;;;;;;;;;5107430;27;20050;-87
2024/01/07 03:11:42;;;;;;;6.53;3.85;;;;;;;;;;5123515;27;20035;-87
2024/01/07 03:14:08;;;;;;;5.90;3.72;;;;;;;;;;5120459;27;20049;-87
2024/01/07 03:16:34;;;;;;;8.13;4.13;;;;;;;;;;5104004;27;20100;-87
2024/01/07 03:19:04;;;;;;;6.43;3.47;;;;;;;;;;5128017;27;20031;-87
2024/01/07 03:21:30;;;;;;;6.28;4.05;;;;;;;;;;5119998;27;20117;-87
2024/01/07 03:23:56;;;;;;;7.60;4.03;;;;;;;;;;5120223;27;20047;-87
2024/01/07 03:26:23;;;;;;;4.40;2.95;;;;;;;;;;5124582;27;20035;-87
2024/01/07 03:28:49;;;;;;;6.60;3.53;;;;;;;;;;5119255;27;20047;-87
2024/01/07 03:31:16;;;;;;;8.55;5.78;;;;;;;;;;5120953;27;20035;-87
2024/01/07 03:33:43;;;;;;;7.75;3.55;;;;;;;;;;5120985;27;20031;-88
2024/01/07 03:36:10;;;;;;;7.20;4.80;;;;;;;;;;5123265;27;20043;-86
2024/01/07 03:38:36;;;;;;;9.75;3.95;;;;;;;;;;5123182;27;20035;-86
2024/01/07 03:41:03;;;;;;;8.38;3.95;;;;;;;;;;5106072;28;20047;-87
2024/01/07 03:43:29;;;;;;;6.28;3.35;;;;;;;;;;5105917;27;20042;-86
2024/01/07 03:45:55;;;;;;;8.27;3.83;;;;;;;;;;5124033;27;20044;-87
2024/01/07 03:48:21;;;;;;;5.15;3.08;;;;;;;;;;5105443;27;20043;-86
2024/01/07 03:50:47;;;;;;;6.60;3.90;;;;;;;;;;5124352;27;20502;-87
2024/01/07 03:53:14;;;;;;;6.45;3.88;;;;;;;;;;5123356;27;20495;-88
2024/01/07 03:55:40;;;;;;;5.97;3.22;;;;;;;;;;5118987;27;20031;-88
2024/01/07 03:58:06;;;;;;;7.78;3.97;;;;;;;;;;5123052;27;20035;-87
2024/01/07 04:00:32;;;;;;;7.60;4.03;;;;;;;;;;5118585;27;20088;-87
2024/01/07 04:02:59;;;;;;;7.22;3.97;;;;;;;;;;5120286;27;20453;-87
2024/01/07 04:05:25;;;;;;;5.75;3.88;;;;;;;;;;5122443;27;20084;-87
2024/01/07 04:07:51;;;;;;;6.60;3.80;;;;;;;;;;5123994;27;20087;-87
2024/01/07 04:10:17;;;;;;;6.38;3.35;;;;;;;;;;5104522;27;20098;-86
2024/01/07 04:12:43;;;;;;;4.72;3.03;;;;;;;;;;5122536;27;20118;-87
2024/01/07 04:15:10;;;;;;;4.07;3.35;;;;;;;;;;5124838;27;20039;-87
2024/01/07 04:17:36;;;;;;;4.78;3.22;;;;;;;;;;5104640;27;20062;-86
2024/01/07 04:20:02;;;;;;;5.47;2.63;;;;;;;;;;5119281;27;20075;-87
2024/01/07 04:22:28;;;;;;;6.88;2.92;;;;;;;;;;5120926;27;20039;-87
2024/01/07 04:24:54;;;;;;;4.85;3.30;;;;;;;;;;5105439;27;20051;-87
2024/01/07 04:27:20;;;;;;;4.85;3.00;;;;;;;;;;5106199;27;20043;-87
2024/01/07 04:29:46;;;;;;;4.72;3.40;;;;;;;;;;5111425;27;20031;-87
2024/01/07 04:32:13;;;;;;;4.82;3.08;;;;;;;;;;5103377;27;20536;-87
2024/01/07 04:34:39;;;;;;;4.05;2.80;;;;;;;;;;5116697;27;20054;-86
2024/01/07 04:37:05;;;;;;;4.60;2.58;;;;;;;;;;5105262;27;20043;-86
2024/01/07 04:39:31;;;;;;;5.90;3.05;;;;;;;;;;5120512;27;20543;-86
2024/01/07 04:41:57;;;;;;;3.65;2.15;;;;;;;;;;5116614;27;20157;-87
2024/01/07 04:44:23;;;;;;;5.32;3.08;;;;;;;;;;5125472;27;20495;-86
2024/01/07 04:46:49;;;;;;;6.05;3.35;;;;;;;;;;5104040;27;20035;-87
2024/01/07 04:49:15;;;;;;;5.72;3.30;;;;;;;;;;5105566;27;20164;-88
2024/01/07 04:51:42;;;;;;;3.97;2.45;;;;;;;;;;5120947;27;20035;-86
2024/01/07 04:54:08;;;;;;;4.60;3.10;;;;;;;;;;5103556;27;20050;-87
2024/01/07 04:56:34;;;;;;;5.03;2.75;;;;;;;;;;5119438;27;20058;-87
2024/01/07 04:59:00;;;;;;;6.90;2.72;;;;;;;;;;5117563;27;20031;-87
2024/01/07 05:01:26;;;;;;;4.22;2.72;;;;;;;;;;5120202;27;20038;-87
2024/01/07 05:03:52;;;;;;;4.60;2.50;;;;;;;;;;5116599;27;20169;-87
2024/01/07 05:06:18;;;;;;;4.38;2.53;;;;;;;;;;5121978;27;20035;-86
2024/01/07 05:08:45;;;;;;;3.53;1.83;;;;;;;;;;5103456;27;20479;-87
2024/01/07 05:11:11;;;;;;;3.58;1.98;;;;;;;;;;5106315;27;20031;-87
2024/01/07 05:13:37;;;;;;;4.38;2.42;;;;;;;;;;5116111;27;20049;-87
2024/01/07 05:16:03;;;;;;;4.68;2.03;;;;;;;;;;5122170;27;20125;-86
2024/01/07 05:18:29;;;;;;;4.25;2.47;;;;;;;;;;5102419;27;20027;-87
2024/01/07 05:20:55;;;;;;;4.18;2.00;;;;;;;;;;5105667;28;20040;-86
2024/01/07 05:23:21;;;;;;;4.10;2.22;;;;;;;;;;5121950;27;20061;-87
2024/01/07 05:25:48;;;;;;;3.28;1.77;;;;;;;;;;5117052;27;20378;-87
2024/01/07 05:28:14;;;;;;;4.72;2.47;;;;;;;;;;5121019;27;20551;-87
2024/01/07 05:30:41;;;;;;;4.85;2.33;;;;;;;;;;5102491;27;20042;-87
2024/01/07 05:33:07;;;;;;;4.97;1.90;;;;;;;;;;5120789;27;20403;-85
2024/01/07 05:35:33;;;;;;;3.38;1.92;;;;;;;;;;5120002;27;20040;-86
2024/01/07 05:38:00;;;;;;;3.65;2.05;;;;;;;;;;5113921;27;20043;-86
2024/01/07 05:40:26;;;;;;;4.50;2.30;;;;;;;;;;5118342;27;20408;-86
2024/01/07 05:42:52;;;;;;;2.03;1.58;;;;;;;;;;5121927;27;20129;-87
2024/01/07 05:45:18;;;;;;;3.38;2.00;;;;;;;;;;5121072;27;20031;-86
2024/01/07 05:47:44;;;;;;;3.50;2.30;;;;;;;;;;5117608;27;20035;-86
2024/01/07 05:50:11;;;;;;;1.55;1.27;;;;;;;;;;5118458;27;20035;-86
2024/01/07 05:52:37;;;;;;;3.47;1.90;;;;;;;;;;5116923;27;20412;-87
2024/01/07 05:55:03;;;;;;;3.40;1.80;;;;;;;;;;5105187;27;20043;-87
2024/01/07 05:57:30;;;;;;;3.05;1.65;;;;;;;;;;5102988;28;20027;-86
2024/01/07 05:59:56;;;;;;;3.90;1.63;;;;;;;;;;5117606;27;20088;-86
2024/01/07 06:02:25;;;;;;;2.67;1.80;;;;;;;;;;5103877;28;20031;-86
2024/01/07 06:04:51;;;;;;;2.80;1.70;;;;;;;;;;5100538;28;20114;-86
2024/01/07 06:07:17;;;;;;;3.20;1.40;;;;;;;;;;5103400;27;20034;-87
2024/01/07 06:09:43;;;;;;;2.42;1.73;;;;;;;;;;5106094;28;20430;-87
2024/01/07 06:12:09;;;;;;;2.80;1.60;;;;;;;;;;5119584;27;20047;-86
2024/01/07 06:14:35;;;;;;;3.17;1.60;;;;;;;;;;5102499;27;20449;-86
2024/01/07 06:17:01;;;;;;;3.05;1.38;;;;;;;;;;5103659;27;20491;-85
2024/01/07 06:19:27;;;;;;;2.30;1.77;;;;;;;;;;5108167;27;20046;-86
2024/01/07 06:21:53;;;;;;;2.67;1.40;;;;;;;;;;5107463;27;20549;-87
2024/01/07 06:24:20;;;;;;;2.88;1.70;;;;;;;;;;5125313;27;20044;-86
2024/01/07 06:26:46;;;;;;;1.40;1.30;;;;;;;;;;5123131;27;20047;-86
2024/01/07 06:29:12;;;;;;;2.42;1.13;;;;;;;;;;5124604;27;20183;-86
2024/01/07 06:31:44;;;;;;;2.00;1.27;;;;;;;;;;5123358;27;20055;-85
2024/01/07 06:34:13;;;;;;;1.83;1.10;;;;;;;;;;5124665;27;20047;-86
2024/01/07 06:36:40;;;;;;;3.08;1.27;;;;;;;;;;5118255;27;20047;-86
2024/01/07 06:39:09;;;;;;;1.77;1.30;;;;;;;;;;5105937;27;20039;-87
2024/01/07 06:41:35;;;;;;;2.03;1.42;;;;;;;;;;5101656;28;20043;-86
2024/01/07 06:44:02;;;;;;;2.20;1.30;;;;;;;;;;5105285;27;20035;-86
2024/01/07 06:46:28;;;;;;;2.08;1.08;;;;;;;;;;5106889;27;20554;-85
2024/01/07 06:48:54;;;;;;;1.83;1.00;;;;;;;;;;5103188;27;20031;-84
2024/01/07 06:51:20;;;;;;;1.00;0.75;;;;;;;;;;5124238;27;20434;-83
2024/01/07 06:53:47;;;;;;;2.78;1.10;;;;;;;;;;5119792;27;20043;-86
2024/01/07 06:56:14;;;;;;;3.67;1.20;;;;;;;;;;5127162;27;20122;-85
2024/01/07 06:58:40;;;;;;;2.20;1.30;;;;;;;;;;5123889;27;20039;-85
2024/01/07 07:01:10;;;;;;;2.08;1.10;;;;;;;;;;5123178;27;20035;-86
2024/01/07 07:03:36;;;;;;;2.90;1.48;;;;;;;;;;5125107;27;20050;-85
2024/01/07 07:06:02;;;;;;;2.03;1.17;;;;;;;;;;5121771;27;20051;-87
2024/01/07 07:08:28;;;;;;;2.15;1.17;;;;;;;;;;5122658;27;20490;-88
2024/01/07 07:10:54;;;;;;;1.55;1.02;;;;;;;;;;5105770;27;20130;-88
2024/01/07 07:13:20;;;;;;;1.58;0.90;;;;;;;;;;5109091;27;20523;-87
2024/01/07 07:15:47;;;;;;;1.23;1.00;;;;;;;;;;5126105;27;20042;-88
2024/01/07 07:18:13;;;;;;;2.58;1.05;;;;;;;;;;5108496;27;20100;-86
2024/01/07 07:20:39;;;;;;;1.75;1.08;;;;;;;;;;5125887;27;20432;-85
2024/01/07 07:23:05;;;;;;;1.38;0.95;;;;;;;;;;5105892;27;20130;-85
2024/01/07 07:25:31;;;;;;;2.00;1.35;;;;;;;;;;5130512;27;20081;-85
2024/01/07 07:27:57;;;;;;;1.63;1.40;;;;;;;;;;5125751;27;20039;-85
2024/01/07 07:30:23;;;;;;;1.85;1.25;;;;;;;;;;5129062;27;20039;-84
2024/01/07 07:32:49;;;;;;;1.80;1.40;;;;;;;;;;5125178;27;20035;-87
2024/01/07 07:35:15;;;;;;;1.23;1.02;;;;;;;;;;5110539;27;20037;-85
2024/01/07 07:37:41;;;;;;;2.22;1.40;;;;;;;;;;5120152;27;20054;-88
2024/01/07 07:40:07;;;;;;;1.63;0.88;;;;;;;;;;5121679;27;20035;-84
2024/01/07 07:42:33;;;;;;;2.05;1.08;;;;;;;;;;5122963;27;20035;-85
2024/01/07 07:44:59;;;;;;;1.27;1.10;;;;;;;;;;5120212;27;20038;-86
2024/01/07 07:47:25;;;;;;;2.10;0.90;;;;;;;;;;5116824;27;20040;-86
2024/01/07 07:49:51;;;;;;;1.88;1.08;;;;;;;;;;5123635;27;20031;-86
2024/01/07 07:52:21;;;;;;;1.48;0.90;;;;;;;;;;5120721;27;20551;-86
2024/01/07 07:54:47;;;;;;;1.98;1.08;;;;;;;;;;5122311;27;20562;-86
2024/01/07 07:57:14;;;;;;;3.33;0.98;;;;;;;;;;5103828;27;20118;-91
2024/01/07 07:59:40;;;;;;;1.10;0.80;;;;;;;;;;5119894;27;20035;-88
2024/01/07 08:02:06;;;;;;;1.63;1.10;;;;;;;;;;5122367;27;20400;-88
2024/01/07 08:04:32;;;;;;;2.00;1.10;;;;;;;;;;5119023;27;20735;-86
2024/01/07 08:06:58;;;;;;;1.80;1.00;;;;;;;;;;5119292;27;20039;-86
2024/01/07 08:09:26;;;;;;;1.40;1.15;;;;;;;;;;5120173;27;20112;-86
2024/01/07 08:11:52;;;;;;;0.88;0.80;;;;;;;;;;5120377;27;20046;-87
2024/01/07 08:14:18;;;;;;;1.30;0.95;;;;;;;;;;5103653;27;20167;-88
2024/01/07 08:16:44;;;;;;;2.30;1.17;;;;;;;;;;5121667;27;20035;-86
2024/01/07 08:19:10;;;;;;;1.35;1.05;;;;;;;;;;5107022;27;20038;-86
2024/01/07 08:21:36;;;;;;;2.53;0.90;;;;;;;;;;5126975;27;20134;-86
2024/01/07 08:24:04;;;;;;;2.55;0.82;;;;;;;;;;5103907;27;20537;-86
2024/01/07 08:26:31;;;;;;;1.42;0.82;;;;;;;;;;5121438;27;20043;-86
2024/01/07 08:28:58;;;;;;;1.55;0.88;;;;;;;;;;5106233;28;20032;-88
2024/01/07 08:31:24;;;;;;;1.48;1.00;;;;;;;;;;5107872;27;20023;-86
2024/01/07 08:33:50;;;;;;;1.98;0.80;;;;;;;;;;5122598;27;20031;-87
2024/01/07 08:36:16;;;;;;;2.13;0.70;;;;;;;;;;5109137;27;20039;-86
2024/01/07 08:38:42;;;;;;;1.83;0.88;;;;;;;;;;5103236;27;20391;-86
2024/01/07 08:41:08;;;;;;;2.60;1.45;;;;;;;;;;5124658;27;20035;-88
2024/01/07 08:43:34;;;;;;;2.42;0.93;;;;;;;;;;5124514;27;20039;-86
2024/01/07 08:46:00;;;;;;;1.90;0.98;;;;;;;;;;5124525;27;20062;-87
2024/01/07 08:48:26;;;;;;;1.60;0.95;;;;;;;;;;5103635;27;20377;-84
2024/01/07 08:50:52;;;;;;;2.50;1.23;;;;;;;;;;5121813;27;20046;-85
2024/01/07 08:53:20;;;;;;;1.42;0.77;;;;;;;;;;5122557;27;20039;-85
2024/01/07 08:55:46;;;;;;;2.83;0.90;;;;;;;;;;5109309;28;20044;-85
2024/01/07 08:58:14;;;;;;;1.20;0.90;;;;;;;;;;5121983;27;20043;-83
2024/01/07 09:00:40;;;;;;;3.38;1.20;;;;;;;;;;5123421;27;20505;-85
2024/01/07 09:03:06;;;;;;;2.53;1.23;;;;;;;;;;5127121;27;20035;-85
2024/01/07 09:05:33;;;;;;;1.33;0.85;;;;;;;;;;5125009;27;20054;-84
2024/01/07 09:08:00;;;;;;;1.92;0.90;;;;;;;;;;5127102;27;20122;-85
2024/01/07 09:10:26;;;;;;;1.88;0.85;;;;;;;;;;5107874;27;20031;-84
2024/01/07 09:12:53;;;;;;;1.38;0.70;;;;;;;;;;5123549;27;20043;-84
2024/01/07 09:15:20;;;;;;;1.60;0.50;;;;;;;;;;5131990;27;20044;-85
2024/01/07 09:17:46;;;;;;;1.67;0.88;;;;;;;;;;5127059;27;20117;-84
2024/01/07 09:20:12;;;;;;;2.08;1.00;;;;;;;;;;5122146;27;20491;-84
2024/01/07 09:22:38;;;;;;;0.82;0.60;;;;;;;;;;5128732;27;20032;-84
2024/01/07 09:25:05;;;;;;;2.13;1.30;;;;;;;;;;5131054;27;20503;-85
2024/01/07 09:27:31;;;;;;;1.00;0.82;;;;;;;;;;5128078;27;20039;-84
2024/01/07 09:29:57;;;;;;;2.03;1.27;;;;;;;;;;5131933;27;20031;-84
2024/01/07 09:32:25;;;;;;;1.73;0.73;;;;;;;;;;5123963;27;20127;-84
2024/01/07 09:34:51;;;;;;;2.58;0.88;;;;;;;;;;5124350;27;20066;-85
2024/01/07 09:37:20;;;;;;;1.85;0.88;;;;;;;;;;5123370;27;20035;-85
2024/01/07 09:39:46;;;;;;;0.98;0.77;;;;;;;;;;5124255;27;20389;-84
2024/01/07 09:42:17;;;;;;;3.90;1.00;;;;;;;;;;5126846;27;20043;-85
2024/01/07 09:44:43;;;;;;;2.78;0.93;;;;;;;;;;5122042;27;20084;-84
2024/01/07 09:47:13;;;;;;;1.83;0.65;;;;;;;;;;5123498;27;20431;-84
2024/01/07 09:49:39;;;;;;;2.20;0.80;;;;;;;;;;5122938;27;20039;-84
2024/01/07 09:52:05;;;;;;;1.98;1.10;;;;;;;;;;5127196;27;20526;-84
2024/01/07 09:54:32;;;;;;;1.20;0.80;;;;;;;;;;5128452;27;20043;-84
2024/01/07 09:57:02;;;;;;;4.13;1.00;;;;;;;;;;5122027;27;20039;-84
2024/01/07 09:59:31;;;;;;;1.40;0.88;;;;;;;;;;5107197;28;20362;-84
2024/01/07 10:01:57;;;;;;;1.90;0.68;;;;;;;;;;5131686;27;20042;-84
2024/01/07 10:04:24;;;;;;;1.15;0.85;;;;;;;;;;5124422;27;20510;-84
2024/01/07 10:06:50;;;;;;;1.77;1.13;;;;;;;;;;5126374;28;20950;-83
2024/01/07 10:09:17;;;;;;;2.15;0.93;;;;;;;;;;5123629;28;20047;-84
2024/01/07 10:11:44;;;;;;;1.27;0.88;;;;;;;;;;5107482;28;20040;-85
2024/01/07 10:14:10;;;;;;;0.47;0.45;;;;;;;;;;5136000;28;20388;-84
2024/01/07 10:16:36;;;;;;;1.38;0.60;;;;;;;;;;5127737;28;20376;-84
2024/01/07 10:19:02;;;;;;;1.38;0.85;;;;;;;;;;5128171;28;20039;-84
2024/01/07 10:21:29;;;;;;;1.90;0.90;;;;;;;;;;5127025;28;20031;-85
2024/01/07 10:24:11;;;;;;;1.20;0.77;;;;;;;;;;5120667;28;20043;-85
2024/01/07 10:26:37;;;;;;;;;;;;;;;;;;5127262;28;20031;-84
2024/01/07 10:29:03;;;;;;;1.33;0.98;;;;;;;;;;5133648;28;19926;-85
2024/01/07 10:31:29;;;;;;;1.15;1.05;;;;;;;;;;5141425;28;20106;-84
2024/01/07 10:33:55;;;;;;;0.90;0.65;;;;;;;;;;5130702;27;20077;-85
2024/01/07 10:36:22;;;;;;;1.20;0.82;;;;;;;;;;5126609;27;20043;-85
2024/01/07 10:38:48;;;;;;;0.90;0.52;;;;;;;;;;5120772;28;20062;-84
2024/01/07 10:41:15;;;;;;;1.30;0.82;;;;;;;;;;5121623;28;20126;-85
2024/01/07 10:43:42;;;;;;;1.50;0.70;;;;;;;;;;5106312;28;20487;-86
2024/01/07 10:46:09;;;;;;;1.15;0.70;;;;;;;;;;5117188;28;20035;-86
2024/01/07 10:48:37;;;;;;;1.52;0.88;;;;;;;;;;5103524;28;20077;-86
2024/01/07 10:51:03;;;;;;;1.50;0.80;;;;;;;;;;5122464;28;20096;-86
2024/01/07 10:53:34;;;;;;;0.90;0.77;;;;;;;;;;5102534;27;20035;-84
2024/01/07 10:56:01;;;;;;;1.55;0.75;;;;;;;;;;5128674;27;20043;-86
2024/01/07 10:58:27;;;;;;;0.47;0.47;;;;;;;;;;5123369;27;20035;-86
2024/01/07 11:00:53;;;;;;;0.93;0.50;;;;;;;;;;5127499;27;20039;-86
2024/01/07 11:03:30;;;;;;;1.38;0.80;;;;;;;;;;5128613;27;20499;-87
2024/01/07 11:06:06;;;;;;;1.00;0.90;;;;;;;;;;5128769;27;20039;-88
2024/01/07 11:08:35;;;;;;;0.73;0.65;;;;;;;;;;5127668;27;20039;-85
2024/01/07 11:11:05;;;;;;;1.33;0.70;;;;;;;;;;5124301;27;20141;-85
2024/01/07 11:13:35;;;;;;;1.65;0.47;;;;;;;;;;5128684;27;20035;-85
2024/01/07 11:16:02;;;;;;;0.85;0.50;;;;;;;;;;5127498;27;20127;-85
2024/01/07 11:18:33;;;;;;;1.17;0.73;;;;;;;;;;5127837;27;20093;-84
2024/01/07 11:21:03;;;;;;;2.00;0.98;;;;;;;;;;5133013;27;20133;-85
2024/01/07 11:23:37;;;;;;;0.85;0.73;;;;;;;;;;5126771;27;20052;-85
2024/01/07 11:26:03;;;;;;;1.75;0.82;;;;;;;;;;5119361;27;20039;-85
2024/01/07 11:28:47;;;;;;;1.40;0.60;;;;;;;;;;5135948;27;20034;-86
2024/01/07 11:31:15;;;;;;;1.77;0.82;;;;;;;;;;5128736;27;20096;-86
2024/01/07 11:33:45;;;;;;;2.13;1.40;;;;;;;;;;5128737;27;20040;-86
2024/01/07 11:36:15;;;;;;;1.85;0.95;;;;;;;;;;5131941;27;20031;-85
2024/01/07 11:38:45;;;;;;;0.85;0.65;;;;;;;;;;5130253;27;20091;-85
2024/01/07 11:41:14;;;;;;;1.42;0.70;;;;;;;;;;5131245;27;20076;-86
2024/01/07 11:43:57;;;;;;;1.88;0.82;;;;;;;;;;5128052;27;20063;-86
2024/01/07 11:46:23;;;;;;;1.42;0.68;;;;;;;;;;5128564;27;20046;-86
2024/01/07 11:48:51;;;;;;;1.40;0.52;;;;;;;;;;5127204;27;20095;-84
2024/01/07 11:51:17;;;;;;;1.23;0.88;;;;;;;;;;5127394;27;20462;-85
2024/01/07 11:53:43;;;;;;;1.30;0.80;;;;;;;;;;5132073;27;20114;-84
2024/01/07 11:56:09;;;;;;;1.65;0.82;;;;;;;;;;5123832;27;20132;-85
2024/01/07 11:58:35;;;;;;;0.70;0.68;;;;;;;;;;5124883;27;20041;-85
2024/01/07 12:01:03;;;;;;;1.17;0.70;;;;;;;;;;5109553;27;20039;-84
2024/01/07 12:03:29;;;;;;;0.98;0.77;;;;;;;;;;5128404;27;20092;-86
2024/01/07 12:05:55;;;;;;;1.40;1.13;;;;;;;;;;5133731;27;20395;-85
2024/01/07 12:08:21;;;;;;;1.85;0.70;;;;;;;;;;5127257;27;20115;-84
2024/01/07 12:10:48;;;;;;;1.95;0.60;;;;;;;;;;5122297;27;20079;-84
2024/01/07 12:13:14;;;;;;;1.02;0.73;;;;;;;;;;5108911;27;20061;-85
2024/01/07 12:15:40;;;;;;;2.22;1.05;;;;;;;;;;5125636;27;20070;-87
2024/01/07 12:18:06;;;;;;;1.85;1.50;;;;;;;;;;5122653;27;20039;-85
2024/01/07 12:20:32;;;;;;;1.00;0.68;;;;;;;;;;5126422;27;20043;-85
2024/01/07 12:23:06;;;;;;;2.28;1.05;;;;;;;;;;5102313;27;20039;-86
2024/01/07 12:25:32;;;;;;;3.35;1.05;;;;;;;;;;5124978;27;20062;-84
2024/01/07 12:27:58;;;;;;;1.60;0.95;;;;;;;;;;5121825;27;20031;-86
2024/01/07 12:30:27;;;;;;;1.00;0.90;;;;;;;;;;5120592;27;20024;-85
2024/01/07 12:32:53;;;;;;;1.92;0.63;;;;;;;;;;5121067;27;20028;-85
2024/01/07 12:35:19;;;;;;;1.50;1.00;;;;;;;;;;5122321;27;20043;-86
2024/01/07 12:37:46;;;;;;;2.42;1.17;;;;;;;;;;5121909;27;20035;-85
2024/01/07 12:40:12;;;;;;;1.42;1.08;;;;;;;;;;5123629;27;20054;-89
2024/01/07 12:42:44;;;;;;;2.30;1.20;;;;;;;;;;5124834;27;20389;-85
2024/01/07 12:45:14;;;;;;;1.88;0.95;;;;;;;;;;5122311;27;20043;-85
2024/01/07 12:47:43;;;;;;;2.17;1.27;;;;;;;;;;5106402;27;20050;-84
2024/01/07 12:50:12;;;;;;;4.13;0.93;;;;;;;;;;5109032;27;20495;-85
2024/01/07 12:52:42;;;;;;;2.15;1.08;;;;;;;;;;5124749;27;20108;-85
2024/01/07 12:55:08;;;;;;;4.70;1.50;;;;;;;;;;5121878;27;20050;-84
2024/01/07 12:57:34;;;;;;;2.25;1.55;;;;;;;;;;5127640;27;20050;-86
2024/01/07 13:00:01;;;;;;;2.03;1.40;;;;;;;;;;5124059;27;20404;-86
2024/01/07 13:02:27;;;;;;;2.88;1.45;;;;;;;;;;5103435;27;20131;-86
2024/01/07 13:04:53;;;;;;;2.45;1.30;;;;;;;;;;5125194;27;20035;-84
2024/01/07 13:07:19;;;;;;;1.88;1.23;;;;;;;;;;5124196;27;20046;-84
2024/01/07 13:09:45;;;;;;;2.28;1.20;;;;;;;;;;5128198;27;20402;-87
2024/01/07 13:12:11;;;;;;;4.07;1.92;;;;;;;;;;5127402;27;20121;-83
2024/01/07 13:14:37;;;;;;;4.22;1.73;;;;;;;;;;5125117;27;20484;-83
2024/01/07 13:17:03;;;;;;;4.75;1.50;;;;;;;;;;5124677;27;20035;-84
2024/01/07 13:19:30;;;;;;;3.85;1.85;;;;;;;;;;5128346;27;20496;-84
2024/01/07 13:21:58;;;;;;;2.50;1.50;;;;;;;;;;5129049;27;20031;-84
2024/01/07 13:24:24;;;;;;;2.83;1.70;;;;;;;;;;5124447;27;20055;-84
2024/01/07 13:26:50;;;;;;;2.47;1.65;;;;;;;;;;5128212;27;20016;-84
2024/01/07 13:29:16;;;;;;;2.53;1.85;;;;;;;;;;5126798;27;20060;-83
2024/01/07 13:31:42;;;;;;;4.07;1.58;;;;;;;;;;5126291;27;20092;-84
2024/01/07 13:34:08;;;;;;;4.60;1.80;;;;;;;;;;5122283;27;20389;-84
2024/01/07 13:36:34;;;;;;;3.80;1.92;;;;;;;;;;5123978;27;20038;-83
2024/01/07 13:39:01;;;;;;;2.55;1.58;;;;;;;;;;5124426;27;20093;-84
2024/01/07 13:41:29;;;;;;;3.45;1.90;;;;;;;;;;5122211;27;20046;-83
2024/01/07 13:43:55;;;;;;;3.15;1.55;;;;;;;;;;5104535;27;20042;-83
2024/01/07 13:46:23;;;;;;;2.40;1.63;;;;;;;;;;5121652;27;20107;-82
2024/01/07 13:48:49;;;;;;;3.47;2.08;;;;;;;;;;5119783;27;20043;-82
2024/01/07 13:51:15;;;;;;;3.90;2.15;;;;;;;;;;5123715;27;20043;-82
2024/01/07 13:53:41;;;;;;;3.45;2.03;;;;;;;;;;5121573;27;20415;-83
2024/01/07 13:56:07;;;;;;;5.25;2.03;;;;;;;;;;5130914;27;20039;-83
2024/01/07 13:58:33;;;;;;;3.08;1.60;;;;;;;;;;5122124;27;20118;-81
2024/01/07 14:00:59;;;;;;;3.22;1.80;;;;;;;;;;5128963;27;20097;-82
2024/01/07 14:03:25;;;;;;;3.05;2.00;;;;;;;;;;5120756;27;20203;-83
2024/01/07 14:05:51;;;;;;;2.08;1.13;;;;;;;;;;5126933;27;20051;-81
2024/01/07 14:08:17;;;;;;;4.53;1.70;;;;;;;;;;5125297;28;20084;-81
2024/01/07 14:10:43;;;;;;;4.00;1.65;;;;;;;;;;5121915;27;20032;-82
2024/01/07 14:13:09;;;;;;;5.38;1.95;;;;;;;;;;5127650;28;20039;-82
2024/01/07 14:15:35;;;;;;;1.85;1.42;;;;;;;;;;5116004;28;20027;-83
2024/01/07 14:18:01;;;;;;;2.45;1.65;;;;;;;;;;5120802;28;20492;-83
2024/01/07 14:20:30;;;;;;;1.25;0.98;;;;;;;;;;5121195;28;20047;-85
2024/01/07 14:22:56;;;;;;;3.60;2.05;;;;;;;;;;5124373;28;20047;-83
2024/01/07 14:25:22;;;;;;;5.32;1.73;;;;;;;;;;5121591;28;20053;-84
2024/01/07 14:27:48;;;;;;;2.60;1.75;;;;;;;;;;5123643;27;20491;-84
2024/01/07 14:30:14;;;;;;;3.03;1.55;;;;;;;;;;5127808;27;20039;-82
2024/01/07 14:32:41;;;;;;;3.95;1.75;;;;;;;;;;5125538;27;20052;-83
2024/01/07 14:35:07;;;;;;;2.33;1.90;;;;;;;;;;5122738;27;20043;-80
2024/01/07 14:37:33;;;;;;;4.30;2.13;;;;;;;;;;5124053;27;20475;-82
2024/01/07 14:39:59;;;;;;;3.45;2.25;;;;;;;;;;5129205;27;20046;-83